CheckWX is a tool to help pilots better visualize weather data.  It is not intended as a substitute for an official pre-flight weather briefing.

20:42:38 UTC

VTCT METAR
Chiang Rai International Airport
Chiang Rai, Thailand
Current

43 mins ago

VTCT 232000Z 00000KT CAVOK 12/12 Q1013 NOSIG
Observed
Jan-23 @ 20:00 UTC
Visibility
10,000+ meters
Flight Rules
VFR
Cloud Levels
  • Clear skies
Temperature
12°C / 54°F
Dewpoint
12°C / 54°F
Humidity
100%
Altimeter
29.91" Hg
Pressure
1012.92 hPa
Previous

2 hours ago

VTCT 231900Z 00000KT CAVOK 13/13 Q1013 NOSIG
Observed
Jan-23 @ 19:00 UTC
Visibility
10,000+ meters
Flight Rules
VFR
Cloud Levels
  • Clear skies
Temperature
13°C / 55°F
Dewpoint
13°C / 55°F
Humidity
100%
Altimeter
29.91" Hg
Pressure
1012.92 hPa
Previous

3 hours ago

VTCT 231800Z 35001KT CAVOK 13/11 Q1013 NOSIG
Observed
Jan-23 @ 18:00 UTC
Wind
  • 350° at 1 KTS
Visibility
10,000+ meters
Flight Rules
VFR
Cloud Levels
  • Clear skies
Temperature
13°C / 55°F
Dewpoint
11°C / 52°F
Humidity
88%
Altimeter
29.91" Hg
Pressure
1012.92 hPa